createdAt,value
2022-11-05T00:09:13.646Z,1015
2022-11-05T00:19:13.619Z,1015
2022-11-05T00:29:13.639Z,1015
2022-11-05T00:39:13.639Z,1015
2022-11-05T00:49:13.627Z,1016
2022-11-05T00:59:13.596Z,1016
2022-11-05T01:09:13.622Z,1016
2022-11-05T01:19:13.629Z,1016
2022-11-05T01:29:13.703Z,1016
2022-11-05T01:39:13.601Z,1016
2022-11-05T01:49:13.653Z,1016
2022-11-05T01:59:13.619Z,1016
2022-11-05T02:09:13.616Z,1016
2022-11-05T02:19:13.613Z,1016
2022-11-05T02:29:13.602Z,1016
2022-11-05T02:39:13.621Z,1016
2022-11-05T02:49:13.620Z,1016
2022-11-05T02:59:13.597Z,1016
2022-11-05T03:09:13.630Z,1016
2022-11-05T03:19:13.595Z,1016
2022-11-05T03:29:13.618Z,1016
2022-11-05T03:39:13.588Z,1016
2022-11-05T03:49:13.652Z,1016
2022-11-05T03:59:13.604Z,1016
2022-11-05T04:09:13.623Z,1016
2022-11-05T04:19:13.597Z,1016
2022-11-05T04:29:13.627Z,1016
2022-11-05T04:39:13.609Z,1016
2022-11-05T04:49:13.622Z,1016
2022-11-05T04:59:13.586Z,1017
2022-11-05T05:09:13.640Z,1017
2022-11-05T05:19:13.581Z,1017
2022-11-05T05:29:13.797Z,1017
2022-11-05T05:39:13.609Z,1017
2022-11-05T05:49:13.594Z,1017
2022-11-05T05:59:13.586Z,1017
2022-11-05T06:09:13.604Z,1017
2022-11-05T06:19:13.607Z,1018
2022-11-05T06:29:13.618Z,1018
2022-11-05T06:39:13.598Z,1018
2022-11-05T06:49:13.635Z,1018
2022-11-05T06:59:13.613Z,1018
2022-11-05T07:09:13.602Z,1018
2022-11-05T07:19:13.581Z,1018
2022-11-05T07:29:13.728Z,1018
2022-11-05T07:39:13.583Z,1018
2022-11-05T07:49:13.820Z,1018
2022-11-05T07:59:13.581Z,1018
2022-11-05T08:09:13.633Z,1018
2022-11-05T08:19:13.610Z,1018
2022-11-05T08:29:21.479Z,1018
2022-11-05T08:39:16.894Z,1018
2022-11-05T08:49:13.688Z,1019
2022-11-05T08:59:13.602Z,1019
2022-11-05T09:09:13.644Z,1019
2022-11-05T09:19:13.604Z,1019
2022-11-05T09:29:14.570Z,1019
2022-11-05T09:39:13.579Z,1019
2022-11-05T09:49:13.588Z,1019
2022-11-05T09:59:13.582Z,1019
2022-11-05T10:09:13.651Z,1018
2022-11-05T10:19:13.566Z,1019
2022-11-05T10:29:13.641Z,1019
2022-11-05T10:39:13.581Z,1018
2022-11-05T10:49:13.562Z,1019
2022-11-05T10:59:13.578Z,1019
2022-11-05T11:09:13.591Z,1019
2022-11-05T11:19:13.553Z,1018
2022-11-05T11:29:13.576Z,1018
2022-11-05T11:39:13.639Z,1018
2022-11-05T11:49:13.559Z,1018
2022-11-05T11:59:13.541Z,1018
2022-11-05T12:09:13.530Z,1018
2022-11-05T12:19:13.544Z,1018
2022-11-05T12:29:18.642Z,1018
2022-11-05T12:39:13.525Z,1018
2022-11-05T12:49:13.520Z,1018
2022-11-05T12:59:13.518Z,1018
2022-11-05T13:09:13.521Z,1018
2022-11-05T13:19:13.493Z,1018
2022-11-05T13:29:13.522Z,1018
2022-11-05T13:39:13.503Z,1018
2022-11-05T13:49:13.506Z,1018
2022-11-05T13:59:13.483Z,1018
2022-11-05T14:09:13.499Z,1018
2022-11-05T14:29:13.496Z,1018
2022-11-05T14:39:13.480Z,1018
2022-11-05T14:49:13.694Z,1018
2022-11-05T14:59:13.443Z,1019
2022-11-05T15:09:13.512Z,1019
2022-11-05T15:19:13.435Z,1019
2022-11-05T15:29:13.599Z,1019
2022-11-05T15:39:28.802Z,1019
2022-11-05T15:49:13.458Z,1019
2022-11-05T15:59:13.501Z,1019
2022-11-05T16:09:13.548Z,1019
2022-11-05T16:19:13.476Z,1019
2022-11-05T16:29:13.452Z,1020
2022-11-05T16:39:13.495Z,1020
2022-11-05T16:49:13.640Z,1020
2022-11-05T16:59:13.418Z,1020
2022-11-05T17:09:13.547Z,1020
2022-11-05T17:19:13.433Z,1020
2022-11-05T17:29:13.458Z,1021
2022-11-05T17:39:13.458Z,1021
2022-11-05T17:49:13.473Z,1021
2022-11-05T17:59:13.443Z,1021
2022-11-05T18:09:13.529Z,1021
2022-11-05T18:19:13.450Z,1021
2022-11-05T18:29:13.459Z,1021
2022-11-05T18:39:13.487Z,1021
2022-11-05T18:49:13.497Z,1021
2022-11-05T18:59:34.991Z,1022
2022-11-05T19:09:13.478Z,1022
2022-11-05T19:19:13.462Z,1022
2022-11-05T19:29:13.492Z,1022
2022-11-05T19:39:13.490Z,1022
2022-11-05T19:49:13.575Z,1022
2022-11-05T19:59:13.473Z,1022
2022-11-05T20:09:22.355Z,1022
2022-11-05T20:19:13.450Z,1022
2022-11-05T20:29:13.498Z,1022
2022-11-05T20:39:13.494Z,1022
2022-11-05T20:49:13.517Z,1023
2022-11-05T20:59:13.492Z,1023
2022-11-05T21:09:13.515Z,1023
2022-11-05T21:19:13.481Z,1023
2022-11-05T21:29:13.543Z,1023
2022-11-05T21:39:13.976Z,1023
2022-11-05T21:49:13.521Z,1023
2022-11-05T21:59:13.506Z,1023
2022-11-05T22:09:13.530Z,1023
2022-11-05T22:19:13.490Z,1023
2022-11-05T22:29:13.563Z,1023
2022-11-05T22:39:13.517Z,1023
2022-11-05T22:49:13.616Z,1023
2022-11-05T22:59:13.553Z,1023
2022-11-05T23:09:13.556Z,1023
2022-11-05T23:19:13.520Z,1023
2022-11-05T23:29:13.573Z,1023
2022-11-05T23:39:13.548Z,1023
2022-11-05T23:49:13.556Z,1023
2022-11-05T23:59:13.574Z,1023
